Time;durP1;ratioP1;P1;durP2;ratioP2;P2;SDS_P1;SDS_P2;PMS_P1;PMS_P2;Temp;Humidity;BMP_temperature;BMP_pressure;BME280_temperature;BME280_humidity;BME280_pressure;Samples;Min_cycle;Max_cycle;Signal;HPM_P1;HPM_P2
2022/01/12 00:00:18;;;;;;;17.08;9.23;;;;;;;-6.99;100.00;94414.31;2092519;28;20032;-82
2022/01/12 00:01:21;;;;;;;12.30;8.88;;;;;;;-7.04;100.00;94411.00;2085555;28;20032;-82
2022/01/12 00:02:22;;;;;;;13.02;8.05;;;;;;;-7.05;100.00;94415.41;2088398;28;20709;-82
2022/01/12 00:03:24;;;;;;;14.57;8.88;;;;;;;-6.96;100.00;94416.38;2077773;28;20037;-81
2022/01/12 00:04:28;;;;;;;13.23;8.38;;;;;;;-6.91;100.00;94418.16;2079096;28;20030;-82
2022/01/12 00:05:29;;;;;;;14.13;8.52;;;;;;;-7.08;100.00;94410.75;2093737;28;20048;-82
2022/01/12 00:06:30;;;;;;;14.15;8.38;;;;;;;-7.11;100.00;94408.72;2075822;28;20486;-83
2022/01/12 00:07:31;;;;;;;13.95;8.40;;;;;;;-7.34;100.00;94405.00;2076488;28;20135;-82
2022/01/12 00:08:33;;;;;;;14.07;9.23;;;;;;;-7.31;100.00;94403.69;2086882;28;20087;-82
2022/01/12 00:09:37;;;;;;;13.13;8.43;;;;;;;-7.27;100.00;94408.06;2084930;28;20025;-82
2022/01/12 00:10:39;;;;;;;11.35;7.85;;;;;;;-7.34;100.00;94405.00;2087766;28;20661;-83
2022/01/12 00:11:53;;;;;;;13.65;8.18;;;;;;;-7.33;100.00;94405.75;2079952;28;20852;-84
2022/01/12 00:13:23;;;;;;;15.68;8.60;;;;;;;-7.32;100.00;94409.94;2084393;28;20498;-83
2022/01/12 00:14:35;;;;;;;14.02;8.18;;;;;;;-7.45;100.00;94411.31;2081210;28;20562;-83
2022/01/12 00:15:38;;;;;;;13.52;8.93;;;;;;;-7.50;100.00;94406.16;2078101;28;20045;-83
2022/01/12 00:16:40;;;;;;;11.55;7.88;;;;;;;-7.48;100.00;94412.63;2081030;28;20485;-84
2022/01/12 00:17:42;;;;;;;12.85;8.75;;;;;;;-7.29;100.00;94404.94;2086837;28;20912;-83
2022/01/12 00:18:45;;;;;;;12.32;8.57;;;;;;;-7.33;100.00;94406.56;2081726;28;20032;-82
2022/01/12 00:19:46;;;;;;;12.57;7.93;;;;;;;-7.21;100.00;94412.16;2071374;28;20033;-82
2022/01/12 00:20:49;;;;;;;11.75;7.40;;;;;;;-7.37;100.00;94413.34;2078201;28;20517;-82
2022/01/12 00:21:50;;;;;;;11.23;7.82;;;;;;;-7.42;100.00;94424.53;2084914;28;20037;-83
2022/01/12 00:22:52;;;;;;;13.13;8.27;;;;;;;-7.36;100.00;94420.09;2080061;28;20410;-84
2022/01/12 00:23:53;;;;;;;13.00;8.13;;;;;;;-7.40;100.00;94429.47;2081796;28;20749;-84
2022/01/12 00:33:35;;;;;;;12.18;7.93;;;;;;;-7.49;100.00;94436.28;2093699;28;20027;-84
2022/01/12 00:34:36;;;;;;;15.05;8.15;;;;;;;-7.48;100.00;94430.03;2079430;28;20124;-84
2022/01/12 00:35:45;;;;;;;12.48;7.50;;;;;;;-7.55;100.00;94432.94;2083748;28;20039;-82
2022/01/12 00:36:46;;;;;;;14.38;8.07;;;;;;;-7.57;100.00;94432.41;2080196;28;20026;-83
2022/01/12 00:37:50;;;;;;;12.32;8.05;;;;;;;-7.64;100.00;94437.13;2070962;28;20495;-83
2022/01/12 00:38:52;;;;;;;12.25;8.20;;;;;;;-7.79;100.00;94438.00;2087716;28;20072;-81
2022/01/12 00:39:58;;;;;;;11.00;7.93;;;;;;;-7.72;100.00;94430.72;2087027;28;20487;-82
2022/01/12 00:40:59;;;;;;;15.20;8.38;;;;;;;-7.70;100.00;94427.84;2069474;28;20992;-82
2022/01/12 00:42:10;;;;;;;14.25;8.25;;;;;;;-7.72;100.00;94425.50;2069919;28;20460;-83
2022/01/12 00:43:11;;;;;;;15.52;7.97;;;;;;;-7.66;100.00;94426.25;2082202;28;20025;-83
2022/01/12 00:44:22;;;;;;;13.05;7.97;;;;;;;-7.68;100.00;94425.72;2079389;28;20465;-81
2022/01/12 00:45:23;;;;;;;12.48;7.93;;;;;;;-7.84;100.00;94432.84;2078028;28;20461;-82
2022/01/12 00:46:39;;;;;;;14.27;7.68;;;;;;;-7.69;100.00;94424.97;2076466;28;20457;-83
2022/01/12 00:47:40;;;;;;;10.57;7.68;;;;;;;-7.73;100.00;94425.75;2085664;28;20078;-83
2022/01/12 00:48:41;;;;;;;12.10;7.72;;;;;;;-7.88;100.00;94429.22;2087040;28;20577;-84
2022/01/12 00:49:42;;;;;;;15.95;8.73;;;;;;;-7.79;100.00;94429.44;2079538;28;20033;-82
2022/01/12 00:50:46;;;;;;;13.02;8.23;;;;;;;-7.82;100.00;94432.56;2077434;28;20503;-83
2022/01/12 00:51:54;;;;;;;12.73;7.32;;;;;;;-7.94;100.00;94432.91;2078666;28;20080;-84
2022/01/12 00:52:55;;;;;;;11.57;7.47;;;;;;;-7.87;100.00;94433.38;2078583;28;20594;-82
2022/01/12 00:54:02;;;;;;;10.20;7.35;;;;;;;-7.95;100.00;94434.69;2080644;28;20832;-84
2022/01/12 00:55:06;;;;;;;11.93;7.30;;;;;;;-8.07;100.00;94442.03;2074484;28;20452;-81
2022/01/12 00:56:07;;;;;;;11.73;7.60;;;;;;;-8.02;100.00;94436.06;2087794;28;20468;-83
2022/01/12 00:57:11;;;;;;;11.02;7.43;;;;;;;-7.88;100.00;94430.00;2083556;28;20530;-83
2022/01/12 00:58:15;;;;;;;13.05;8.15;;;;;;;-8.01;100.00;94433.19;2073591;28;20029;-82
2022/01/12 00:59:19;;;;;;;10.95;7.38;;;;;;;-8.16;100.00;94434.03;2073663;28;20448;-85
2022/01/12 01:00:21;;;;;;;11.52;7.40;;;;;;;-7.99;100.00;94435.50;2069373;28;20441;-82
2022/01/12 01:01:22;;;;;;;15.88;8.07;;;;;;;-7.95;100.00;94432.09;2081215;28;20774;-82
2022/01/12 01:02:24;;;;;;;13.20;7.50;;;;;;;-8.00;100.00;94436.53;2071349;28;20453;-83
2022/01/12 01:03:25;;;;;;;14.07;7.60;;;;;;;-8.01;100.00;94435.78;2089230;28;20927;-83
2022/01/12 01:04:26;;;;;;;11.57;7.72;;;;;;;-8.02;100.00;94439.41;2080813;28;20448;-82
2022/01/12 01:05:31;;;;;;;14.32;8.30;;;;;;;-8.12;100.00;94437.66;2081358;28;20772;-83
2022/01/12 01:06:32;;;;;;;13.50;7.90;;;;;;;-8.07;100.00;94451.63;2084575;28;20451;-82
2022/01/12 01:07:39;;;;;;;13.77;8.13;;;;;;;-8.18;100.00;94445.69;2080515;28;20481;-82
2022/01/12 01:08:43;;;;;;;13.02;7.78;;;;;;;-8.29;100.00;94444.19;2075330;28;20468;-82
2022/01/12 01:09:59;;;;;;;14.68;7.97;;;;;;;-8.20;100.00;94440.78;2072983;28;21274;-82
2022/01/12 01:11:04;;;;;;;11.98;7.70;;;;;;;-8.03;100.00;94435.28;2077938;28;20502;-83
2022/01/12 01:12:09;;;;;;;12.85;7.72;;;;;;;-8.05;100.00;94442.53;2070838;28;20457;-85
2022/01/12 01:13:18;;;;;;;13.60;7.43;;;;;;;-8.12;100.00;94436.84;2080856;28;20460;-83
2022/01/12 01:14:37;;;;;;;15.63;8.55;;;;;;;-8.17;100.00;94442.06;2087374;28;20456;-84
2022/01/12 01:25:45;;;;;;;11.15;7.30;;;;;;;-8.13;100.00;94454.22;2089390;28;20463;-85
2022/01/12 01:26:48;;;;;;;10.48;6.55;;;;;;;-8.09;100.00;94453.72;2086336;28;20016;-82
2022/01/12 01:27:49;;;;;;;14.95;7.28;;;;;;;-8.00;100.00;94452.09;2083576;28;20534;-84
2022/01/12 01:28:50;;;;;;;12.75;7.90;;;;;;;-8.12;100.00;94457.59;2071879;28;20457;-82
2022/01/12 01:29:58;;;;;;;11.65;7.38;;;;;;;-8.11;100.00;94462.53;2077627;28;20022;-81
2022/01/12 01:31:04;;;;;;;11.65;7.32;;;;;;;-8.21;100.00;94472.94;2089726;28;20407;-83
2022/01/12 01:32:19;;;;;;;15.63;7.85;;;;;;;-8.23;100.00;94471.66;2083941;28;20427;-82
2022/01/12 01:33:21;;;;;;;12.65;7.30;;;;;;;-8.19;100.00;94462.31;2087673;28;21059;-84
2022/01/12 01:34:48;;;;;;;12.05;7.05;;;;;;;-8.09;100.00;94464.84;2079483;28;20873;-84
2022/01/12 01:35:54;;;;;;;11.77;7.28;;;;;;;-8.17;100.00;94473.94;2092450;28;20441;-82
2022/01/12 01:36:56;;;;;;;11.07;7.43;;;;;;;-8.25;100.00;94471.94;2088242;28;20758;-83
2022/01/12 01:38:00;;;;;;;12.43;7.82;;;;;;;-8.18;100.00;94471.63;2093887;28;20881;-82
2022/01/12 01:39:02;;;;;;;13.73;7.88;;;;;;;-7.99;100.00;94466.63;2094611;28;20521;-83
2022/01/12 01:40:04;;;;;;;11.30;7.97;;;;;;;-8.02;100.00;94467.94;2079375;28;20563;-82
2022/01/12 01:41:05;;;;;;;12.18;7.57;;;;;;;-8.01;100.00;94472.09;2088862;28;20998;-84
2022/01/12 01:42:22;;;;;;;16.63;8.77;;;;;;;-7.84;100.00;94468.41;2096410;28;20546;-82
2022/01/12 01:43:43;;;;;;;13.27;7.32;;;;;;;-7.93;100.00;94475.97;2089148;28;20558;-82
2022/01/12 01:53:58;;;;;;;10.45;6.88;;;;;;;-7.62;100.00;94463.59;2098992;28;20056;-83
2022/01/12 01:54:59;;;;;;;13.38;8.07;;;;;;;-7.49;100.00;94462.25;2086195;28;20037;-84
2022/01/12 01:56:00;;;;;;;14.52;8.10;;;;;;;-7.34;100.00;94456.94;2092439;28;20960;-84
2022/01/12 01:57:01;;;;;;;13.52;7.85;;;;;;;-7.39;100.00;94462.94;2096216;28;20450;-84
2022/01/12 01:58:05;;;;;;;13.68;8.20;;;;;;;-7.46;100.00;94467.69;2076638;28;20402;-82
2022/01/12 01:59:09;;;;;;;16.15;8.95;;;;;;;-7.38;100.00;94461.13;2078663;28;20464;-83
2022/01/12 02:00:14;;;;;;;13.77;7.68;;;;;;;-7.32;100.00;94462.66;2073466;28;20452;-84
2022/01/12 02:01:16;;;;;;;13.82;8.38;;;;;;;-7.24;100.00;94464.69;2084521;28;20463;-84
2022/01/12 02:02:16;;;;;;;14.00;8.02;;;;;;;-7.20;100.00;94463.09;2079218;28;20460;-83
2022/01/12 02:03:19;;;;;;;13.75;8.88;;;;;;;-7.19;100.00;94456.84;2092912;28;21045;-83
2022/01/12 02:04:19;;;;;;;13.98;8.55;;;;;;;-7.26;100.00;94466.75;2087673;28;20103;-84
2022/01/12 02:05:21;;;;;;;16.58;9.32;;;;;;;-7.27;100.00;94462.59;2088845;28;20827;-83
2022/01/12 02:06:23;;;;;;;15.10;9.57;;;;;;;-7.35;100.00;94452.78;2086637;28;20516;-84
2022/01/12 02:07:24;;;;;;;15.60;9.32;;;;;;;-7.25;100.00;94457.13;2085349;28;20451;-83
2022/01/12 02:08:25;;;;;;;14.73;10.02;;;;;;;-7.03;100.00;94461.91;2088365;28;20745;-83
2022/01/12 02:09:26;;;;;;;16.83;9.50;;;;;;;-7.02;100.00;94459.06;2078558;28;20498;-83
2022/01/12 02:10:29;;;;;;;13.50;9.18;;;;;;;-7.01;100.00;94449.44;2078711;28;20391;-82
2022/01/12 02:11:30;;;;;;;13.52;9.00;;;;;;;-7.10;100.00;94451.84;2089485;28;20032;-83
2022/01/12 02:12:31;;;;;;;14.70;9.27;;;;;;;-7.13;100.00;94449.78;2097541;28;20039;-83
2022/01/12 02:13:33;;;;;;;14.57;9.07;;;;;;;-7.25;100.00;94446.75;2089254;28;20124;-84
2022/01/12 02:14:34;;;;;;;14.60;9.02;;;;;;;-7.14;100.00;94456.78;2082724;28;20034;-84
2022/01/12 02:15:35;;;;;;;15.70;8.95;;;;;;;-7.08;100.00;94449.72;2079842;28;20462;-83
2022/01/12 02:16:49;;;;;;;13.98;9.13;;;;;;;-7.01;100.00;94452.03;2087871;28;20454;-83
2022/01/12 02:36:33;;;;;;;15.45;9.25;;;;;;;-6.28;100.00;94456.28;2098984;28;20028;-82
2022/01/12 02:40:24;;;;;;;13.75;8.82;;;;;;;-6.36;100.00;94474.06;2099102;28;20020;-84
2022/01/12 02:41:26;;;;;;;15.10;9.13;;;;;;;-6.40;100.00;94462.66;2093016;28;20027;-82
2022/01/12 02:42:28;;;;;;;15.93;9.68;;;;;;;-6.39;100.00;94466.03;2084905;28;20426;-82
2022/01/12 02:51:34;;;;;;;15.43;9.27;;;;;;;-6.15;100.00;94473.81;2098380;28;20040;-84
2022/01/12 02:54:08;;;;;;;16.75;9.70;;;;;;;-6.13;100.00;94476.94;2090652;28;20024;-83
2022/01/12 02:55:16;;;;;;;13.32;8.65;;;;;;;-6.13;100.00;94469.13;2095128;28;20024;-84
2022/01/12 02:56:27;;;;;;;15.80;9.55;;;;;;;-6.02;100.00;94461.97;2084109;28;20076;-83
2022/01/12 02:57:33;;;;;;;17.02;9.80;;;;;;;-6.02;100.00;94467.19;2089146;28;20390;-82
2022/01/12 02:58:34;;;;;;;14.80;9.40;;;;;;;-6.05;100.00;94472.97;2089129;28;20048;-84
2022/01/12 02:59:49;;;;;;;13.82;9.10;;;;;;;-5.76;100.00;94478.03;2090562;28;20017;-82
2022/01/12 03:02:29;;;;;;;15.63;9.68;;;;;;;-5.93;100.00;94474.09;2092005;28;20440;-84
2022/01/12 03:03:35;;;;;;;12.65;8.90;;;;;;;-6.07;100.00;94473.22;2102477;28;20439;-86
2022/01/12 03:04:38;;;;;;;15.45;9.38;;;;;;;-6.06;100.00;94466.19;2094669;28;20036;-83
2022/01/12 03:05:54;;;;;;;14.32;8.98;;;;;;;-5.92;100.00;94467.09;2097026;28;20062;-84
2022/01/12 03:07:04;;;;;;;14.90;8.98;;;;;;;-5.97;100.00;94460.13;2090307;28;20071;-82
2022/01/12 03:08:13;;;;;;;;;;;;;;;-5.99;100.00;94454.41;2090167;28;20037;-82
2022/01/12 03:09:16;;;;;;;15.02;8.70;;;;;;;-5.97;100.00;94454.09;2089434;28;19954;-83
2022/01/12 03:10:19;;;;;;;15.00;9.35;;;;;;;-5.97;100.00;94454.09;2087037;28;20119;-82
2022/01/12 03:11:25;;;;;;;16.70;8.82;;;;;;;-6.01;100.00;94447.91;2083493;28;20029;-83
2022/01/12 03:12:26;;;;;;;14.35;9.20;;;;;;;-5.94;100.00;94450.94;2079516;28;20021;-82
2022/01/12 03:13:30;;;;;;;14.77;9.20;;;;;;;-5.78;100.00;94459.34;2084665;28;20437;-82
2022/01/12 03:14:31;;;;;;;14.15;8.55;;;;;;;-5.74;100.00;94448.06;2091297;28;20651;-83
2022/01/12 03:15:39;;;;;;;19.85;9.73;;;;;;;-5.88;100.00;94449.81;2081586;28;20033;-83
2022/01/12 03:16:42;;;;;;;15.52;9.88;;;;;;;-5.84;100.00;94449.00;2083681;28;20529;-81
2022/01/12 03:17:46;;;;;;;17.20;9.85;;;;;;;-5.77;100.00;94453.84;2077605;28;20488;-83
2022/01/12 03:18:56;;;;;;;14.35;10.13;;;;;;;-5.84;100.00;94445.59;2087008;28;20044;-84
2022/01/12 03:19:57;;;;;;;15.48;11.32;;;;;;;-5.82;100.00;94452.06;2080846;28;20052;-83
2022/01/12 03:20:59;;;;;;;13.68;9.38;;;;;;;-5.82;100.00;94446.88;2079279;28;20108;-82
2022/01/12 03:22:00;;;;;;;15.10;9.25;;;;;;;-5.84;100.00;94445.59;2081336;28;20021;-83
2022/01/12 03:23:05;;;;;;;13.60;9.10;;;;;;;-5.80;100.00;94441.38;2085657;28;20386;-82
2022/01/12 03:24:07;;;;;;;19.02;10.55;;;;;;;-5.79;100.00;94437.72;2079933;28;20028;-83
2022/01/12 03:25:08;;;;;;;17.70;10.82;;;;;;;-5.78;100.00;94436.66;2086297;28;20031;-82
2022/01/12 03:26:09;;;;;;;15.98;9.68;;;;;;;-5.79;100.00;94432.53;2093934;28;20496;-83
2022/01/12 03:27:13;;;;;;;14.65;10.13;;;;;;;-5.80;100.00;94438.75;2089887;28;20166;-82
2022/01/12 03:28:14;;;;;;;15.82;10.55;;;;;;;-5.78;100.00;94441.09;2090304;28;20020;-82
2022/01/12 03:29:17;;;;;;;16.85;10.75;;;;;;;-5.75;100.00;94436.13;2087838;28;20032;-85
2022/01/12 03:30:20;;;;;;;17.30;11.65;;;;;;;-5.64;100.00;94437.53;2097910;28;20078;-84
2022/01/12 03:31:27;;;;;;;15.68;10.20;;;;;;;-5.63;100.00;94438.28;2079674;28;20075;-84
2022/01/12 03:32:36;;;;;;;17.45;11.38;;;;;;;-5.57;100.00;94437.19;2082321;28;20034;-83
2022/01/12 03:34:53;;;;;;;19.65;11.85;;;;;;;-5.43;100.00;94447.66;2085716;28;20080;-84
2022/01/12 03:36:53;;;;;;;19.02;12.02;;;;;;;-5.29;100.00;94442.53;2095998;28;20017;-84
2022/01/12 03:37:41;;;;;;;15.82;10.20;;;;;;;-5.33;100.00;94444.91;2089003;28;20144;-84
2022/01/12 03:38:42;;;;;;;20.10;11.23;;;;;;;-5.22;100.00;94441.13;2094558;28;20107;-84
2022/01/12 03:39:43;;;;;;;16.25;10.63;;;;;;;-5.20;100.00;94446.81;2091160;28;20024;-86
2022/01/12 03:40:44;;;;;;;18.40;10.80;;;;;;;-5.10;100.00;94445.88;2093947;28;20044;-85
2022/01/12 03:41:45;;;;;;;14.85;10.50;;;;;;;-5.16;100.00;94447.03;2088780;28;20045;-85
2022/01/12 03:42:46;;;;;;;15.93;10.98;;;;;;;-5.04;100.00;94439.53;2077613;28;20053;-83
2022/01/12 03:43:48;;;;;;;17.90;10.95;;;;;;;-5.07;100.00;94446.09;2082908;28;20075;-83
2022/01/12 03:44:49;;;;;;;21.10;11.07;;;;;;;-5.11;100.00;94444.31;2099802;28;20032;-84
2022/01/12 03:45:54;;;;;;;16.45;10.90;;;;;;;-5.10;100.00;94446.63;2081020;28;20029;-83
2022/01/12 03:46:55;;;;;;;17.38;11.30;;;;;;;-5.13;100.00;94452.44;2082384;28;20112;-85
2022/01/12 03:47:56;;;;;;;16.50;10.80;;;;;;;-5.17;100.00;94448.84;2093758;28;20540;-83
2022/01/12 03:48:58;;;;;;;17.70;10.65;;;;;;;-5.14;100.00;94453.47;2083925;28;20025;-84
2022/01/12 03:50:03;;;;;;;17.90;10.52;;;;;;;-5.13;100.00;94449.06;2084344;28;20355;-84
2022/01/12 03:51:09;;;;;;;15.07;9.77;;;;;;;-5.07;100.00;94463.56;2089194;28;20020;-85
2022/01/12 03:52:10;;;;;;;17.10;10.45;;;;;;;-5.02;100.00;94449.66;2091091;28;20070;-84
2022/01/12 03:53:11;;;;;;;16.08;11.05;;;;;;;-5.00;100.00;94453.56;2087595;28;20162;-84
2022/01/12 03:54:13;;;;;;;16.33;11.45;;;;;;;-4.95;100.00;94447.47;2078182;28;20491;-85
2022/01/12 03:55:13;;;;;;;16.73;11.02;;;;;;;-5.01;100.00;94453.81;2081637;28;20027;-83
2022/01/12 03:56:17;;;;;;;17.88;10.45;;;;;;;-5.16;100.00;94453.00;2078968;28;20343;-84
2022/01/12 03:57:18;;;;;;;15.75;10.23;;;;;;;-4.84;100.00;94454.84;2096300;28;20024;-85
2022/01/12 03:58:22;;;;;;;18.42;10.95;;;;;;;-4.92;100.00;94457.31;2087776;28;20047;-85
2022/01/12 04:02:45;;;;;;;14.30;8.95;;;;;;;-4.91;100.00;94469.31;2094204;28;20040;-82
2022/01/12 04:03:57;;;;;;;15.82;10.75;;;;;;;-5.04;100.00;94464.84;2089398;28;20025;-84
2022/01/12 04:05:23;;;;;;;16.80;10.77;;;;;;;-5.09;100.00;94473.50;2090160;28;20577;-83
2022/01/12 04:09:03;;;;;;;12.95;9.60;;;;;;;-5.20;100.00;94490.34;2097206;28;20111;-85
2022/01/12 04:10:05;;;;;;;17.30;11.60;;;;;;;-5.16;100.00;94484.28;2097583;28;20023;-84
2022/01/12 04:11:26;;;;;;;16.73;11.00;;;;;;;-5.14;100.00;94479.53;2087828;28;20017;-85
2022/01/12 04:12:29;;;;;;;17.17;11.52;;;;;;;-5.06;100.00;94483.34;2080953;28;20052;-84
2022/01/12 04:13:31;;;;;;;16.52;11.40;;;;;;;-5.06;100.00;94483.34;2087364;28;20834;-84
2022/01/12 04:14:32;;;;;;;19.00;11.15;;;;;;;-5.10;100.00;94483.13;2086265;28;20433;-82
2022/01/12 04:15:32;;;;;;;20.45;12.15;;;;;;;-5.10;100.00;94474.53;2088966;28;20083;-84
2022/01/12 04:16:36;;;;;;;16.20;11.48;;;;;;;-4.98;100.00;94481.94;2093652;28;20122;-82
2022/01/12 04:17:43;;;;;;;15.95;10.68;;;;;;;-4.99;100.00;94478.56;2087478;28;20024;-83
2022/01/12 04:18:51;;;;;;;18.27;10.75;;;;;;;-4.99;100.00;94485.59;2081072;28;20413;-84
2022/01/12 04:20:03;;;;;;;18.83;11.30;;;;;;;-5.10;100.00;94490.19;2082515;28;20026;-84
2022/01/12 04:21:07;;;;;;;19.98;11.40;;;;;;;-5.15;100.00;94482.44;2090339;28;20067;-84
2022/01/12 04:23:44;;;;;;;13.90;10.43;;;;;;;-5.38;100.00;94478.84;2072968;28;20028;-83
2022/01/12 04:25:00;;;;;;;17.88;11.13;;;;;;;-5.46;100.00;94490.69;2085727;28;20094;-84
2022/01/12 04:26:14;;;;;;;15.10;10.98;;;;;;;-5.47;100.00;94489.13;2090186;28;20021;-85
2022/01/12 04:27:15;;;;;;;15.30;10.70;;;;;;;-5.27;100.00;94487.28;2099408;28;20016;-83
2022/01/12 04:28:21;;;;;;;20.23;11.65;;;;;;;-5.09;100.00;94491.75;2097787;28;20133;-84
2022/01/12 04:29:24;;;;;;;15.65;11.52;;;;;;;-5.22;100.00;94492.47;2085338;28;20064;-83
2022/01/12 04:30:30;;;;;;;16.60;10.73;;;;;;;-5.11;100.00;94493.84;2077214;28;20025;-86
2022/01/12 04:31:31;;;;;;;20.20;11.85;;;;;;;-5.16;100.00;94493.94;2089906;28;20032;-85
2022/01/12 04:32:40;;;;;;;15.75;11.13;;;;;;;-4.91;100.00;94492.78;2089369;28;20116;-83
2022/01/12 04:33:47;;;;;;;16.08;10.85;;;;;;;-4.99;100.00;94489.00;2081431;28;20025;-84
2022/01/12 04:34:48;;;;;;;16.85;10.88;;;;;;;-4.85;100.00;94496.84;2081878;28;20056;-86
2022/01/12 04:35:54;;;;;;;19.85;12.23;;;;;;;-4.97;100.00;94496.50;2080463;28;20585;-85
2022/01/12 04:36:55;;;;;;;19.17;11.32;;;;;;;-4.98;100.00;94495.75;2082613;28;20049;-85
2022/01/12 04:37:56;;;;;;;17.33;11.25;;;;;;;-5.12;100.00;94494.91;2081193;28;20022;-86
2022/01/12 04:38:57;;;;;;;18.48;13.15;;;;;;;-5.00;100.00;94484.84;2080844;28;20071;-84
2022/01/12 04:39:58;;;;;;;17.65;11.65;;;;;;;-4.98;100.00;94487.91;2077090;28;20033;-83
2022/01/12 04:41:05;;;;;;;16.27;11.60;;;;;;;-4.94;100.00;94483.69;2080977;28;20017;-82
2022/01/12 04:42:06;;;;;;;16.27;11.43;;;;;;;-4.96;100.00;94490.22;2079481;28;20053;-83
2022/01/12 04:43:09;;;;;;;17.17;11.60;;;;;;;-5.07;100.00;94476.59;2079734;28;20566;-84
2022/01/12 04:44:12;;;;;;;18.98;11.55;;;;;;;-4.96;100.00;94480.59;2087821;28;20029;-82
2022/01/12 04:45:41;;;;;;;18.15;11.18;;;;;;;-4.95;100.00;94476.94;2093449;28;20024;-82
2022/01/12 04:47:04;;;;;;;16.42;10.38;;;;;;;-4.78;100.00;94471.19;2090629;28;20378;-84
2022/01/12 04:49:36;;;;;;;15.55;10.57;;;;;;;-4.91;100.00;94477.16;2098649;28;20031;-82
2022/01/12 04:50:37;;;;;;;18.45;11.32;;;;;;;-4.97;100.00;94473.06;2092662;28;20020;-83
2022/01/12 04:51:39;;;;;;;16.17;11.10;;;;;;;-5.19;100.00;94471.81;2086660;28;20020;-83
2022/01/12 04:52:41;;;;;;;19.60;12.52;;;;;;;-5.34;100.00;94480.63;2082429;28;20023;-84
2022/01/12 04:53:42;;;;;;;16.77;11.85;;;;;;;-5.39;100.00;94480.69;2071674;28;20438;-84
2022/01/12 04:54:43;;;;;;;17.27;11.80;;;;;;;-5.33;100.00;94479.56;2071619;28;20025;-85
2022/01/12 04:55:45;;;;;;;19.25;12.20;;;;;;;-5.37;100.00;94481.16;2084080;28;20027;-84
2022/01/12 04:56:47;;;;;;;19.83;13.27;;;;;;;-4.98;100.00;94476.72;2071373;28;20101;-83
2022/01/12 04:57:48;;;;;;;18.80;12.48;;;;;;;-5.14;100.00;94489.97;2088008;28;20106;-84
2022/01/12 04:58:48;;;;;;;18.55;11.73;;;;;;;-5.00;100.00;94491.84;2086844;28;20067;-83
2022/01/12 05:00:13;;;;;;;16.05;11.32;;;;;;;-5.03;100.00;94501.03;2077642;28;20025;-83
2022/01/12 05:01:23;;;;;;;13.90;10.25;;;;;;;-4.89;100.00;94496.66;2081830;28;20086;-84
2022/01/12 05:08:35;;;;;;;17.60;10.02;;;;;;;-5.32;100.00;94525.41;2071196;28;20040;-83
2022/01/12 05:12:47;;;;;;;13.93;9.50;;;;;;;-5.21;100.00;94528.66;2065966;28;20033;-83
2022/01/12 05:13:39;;;;;;;19.63;11.15;;;;;;;-5.25;100.00;94534.72;2099612;28;20033;-82
2022/01/12 05:14:46;;;;;;;16.83;11.05;;;;;;;-5.24;100.00;94536.25;2089162;28;20056;-83
2022/01/12 05:15:47;;;;;;;19.58;11.20;;;;;;;-5.06;100.00;94531.03;2086253;28;20041;-83
2022/01/12 05:16:47;;;;;;;17.65;12.38;;;;;;;-5.04;100.00;94532.63;2076951;28;20154;-85
2022/01/12 05:17:48;;;;;;;15.13;10.35;;;;;;;-5.00;100.00;94538.78;2081132;28;20025;-83
2022/01/12 05:18:52;;;;;;;18.02;10.18;;;;;;;-5.20;100.00;94529.44;2083062;28;20025;-85
2022/01/12 05:19:53;;;;;;;18.77;11.43;;;;;;;-5.19;100.00;94530.97;2081282;28;20025;-85
2022/01/12 05:20:53;;;;;;;16.48;10.70;;;;;;;-5.23;100.00;94532.59;2086859;28;20028;-83
2022/01/12 05:21:54;;;;;;;17.85;11.55;;;;;;;-5.20;100.00;94539.84;2088170;28;20032;-82
2022/01/12 05:22:55;;;;;;;23.75;11.40;;;;;;;-5.13;100.00;94543.66;2089613;28;20025;-82
2022/01/12 05:24:00;;;;;;;15.23;11.02;;;;;;;-5.13;100.00;94548.88;2082641;28;20129;-82
2022/01/12 05:25:06;;;;;;;19.15;10.50;;;;;;;-5.22;100.00;94540.16;2085854;28;20158;-83
2022/01/12 05:26:07;;;;;;;14.82;9.82;;;;;;;-5.28;100.00;94551.66;2089499;28;20021;-82
2022/01/12 05:27:16;;;;;;;16.45;11.23;;;;;;;-5.27;100.00;94542.78;2088675;28;20107;-83
2022/01/12 05:28:17;;;;;;;18.40;11.10;;;;;;;-5.34;100.00;94543.16;2088201;28;20017;-82
2022/01/12 05:29:18;;;;;;;21.90;12.52;;;;;;;-5.37;100.00;94541.09;2086136;28;20427;-84
2022/01/12 05:30:19;;;;;;;15.15;10.65;;;;;;;-5.38;100.00;94544.00;2087693;28;20033;-83
2022/01/12 05:31:20;;;;;;;17.33;11.48;;;;;;;-5.18;100.00;94538.53;2080387;28;20068;-81
2022/01/12 05:32:24;;;;;;;17.60;11.07;;;;;;;-5.28;100.00;94556.88;2079089;28;20238;-83
2022/01/12 05:33:25;;;;;;;15.57;11.02;;;;;;;-5.17;100.00;94553.09;2088805;28;20036;-83
2022/01/12 05:34:27;;;;;;;20.83;12.07;;;;;;;-5.07;100.00;94555.56;2080698;28;20489;-83
2022/01/12 05:35:33;;;;;;;17.80;11.23;;;;;;;-4.98;100.00;94552.31;2077721;28;20107;-83
2022/01/12 05:36:36;;;;;;;18.02;10.05;;;;;;;-5.04;100.00;94556.84;2086053;28;20028;-83
2022/01/12 05:37:37;;;;;;;16.42;10.27;;;;;;;-5.04;100.00;94558.69;2088274;28;20462;-83
2022/01/12 05:38:38;;;;;;;13.85;10.63;;;;;;;-5.17;100.00;94549.72;2088574;28;20028;-84
2022/01/12 05:39:39;;;;;;;16.05;11.10;;;;;;;-5.09;100.00;94556.91;2086140;28;20111;-83
2022/01/12 05:40:45;;;;;;;19.27;10.95;;;;;;;-5.01;100.00;94552.88;2088004;28;20488;-83
2022/01/12 05:41:50;;;;;;;18.17;11.57;;;;;;;-5.00;100.00;94554.41;2089031;28;20033;-83
2022/01/12 05:43:00;;;;;;;16.25;11.00;;;;;;;-4.94;100.00;94553.31;2089803;28;20052;-83
2022/01/12 05:44:06;;;;;;;17.02;10.77;;;;;;;-5.00;100.00;94559.63;2086441;28;20029;-84
2022/01/12 05:45:08;;;;;;;16.95;10.88;;;;;;;-4.90;100.00;94551.69;2094763;28;20205;-84
2022/01/12 05:46:14;;;;;;;15.25;11.10;;;;;;;-4.95;100.00;94557.75;2094337;28;20107;-82
2022/01/12 05:47:32;;;;;;;17.23;11.68;;;;;;;-4.93;100.00;94560.84;2081071;28;20022;-85
2022/01/12 05:49:53;;;;;;;16.10;10.90;;;;;;;-4.99;100.00;94563.81;2096840;28;20065;-82
2022/01/12 05:50:54;;;;;;;18.25;11.88;;;;;;;-5.02;100.00;94569.59;2092471;28;20035;-84
2022/01/12 05:51:55;;;;;;;16.70;12.05;;;;;;;-5.03;100.00;94560.22;2079868;28;20431;-84
2022/01/12 05:52:57;;;;;;;18.23;12.13;;;;;;;-5.13;100.00;94556.69;2088760;28;20048;-84
2022/01/12 05:53:58;;;;;;;18.58;12.73;;;;;;;-5.21;100.00;94553.94;2086866;28;20498;-84
2022/01/12 05:55:03;;;;;;;20.10;12.90;;;;;;;-5.24;100.00;94550.06;2087018;28;20021;-84
2022/01/12 05:56:07;;;;;;;19.67;12.65;;;;;;;-5.34;100.00;94558.00;2080565;28;20451;-84
2022/01/12 05:57:10;;;;;;;20.70;13.13;;;;;;;-5.36;100.00;94557.50;2087976;28;20047;-83
2022/01/12 05:58:17;;;;;;;17.88;12.57;;;;;;;-5.17;100.00;94560.91;2088635;28;20386;-84
2022/01/12 05:59:18;;;;;;;17.40;12.75;;;;;;;-5.20;100.00;94571.13;2085962;28;20108;-84
2022/01/12 06:00:21;;;;;;;19.85;12.80;;;;;;;-5.35;100.00;94570.28;2080694;28;20017;-84
2022/01/12 06:01:23;;;;;;;20.52;13.52;;;;;;;-5.17;100.00;94570.56;2076313;28;20374;-83
2022/01/12 06:02:24;;;;;;;19.75;14.18;;;;;;;-5.19;100.00;94570.06;2086353;28;20034;-83
2022/01/12 06:03:25;;;;;;;20.80;12.35;;;;;;;-5.26;100.00;94567.81;2083295;28;20118;-84
2022/01/12 06:04:26;;;;;;;16.42;11.35;;;;;;;-5.02;100.00;94567.75;2087301;28;20017;-85
2022/01/12 06:05:30;;;;;;;17.27;11.82;;;;;;;-4.98;100.00;94571.34;2084877;28;20908;-82
2022/01/12 06:06:33;;;;;;;17.73;11.75;;;;;;;-5.07;100.00;94563.38;2079066;28;20018;-84
2022/01/12 06:07:54;;;;;;;19.55;12.05;;;;;;;-5.13;100.00;94561.13;2080394;28;20391;-83
2022/01/12 06:08:55;;;;;;;20.20;11.52;;;;;;;-5.07;100.00;94563.38;2093821;28;20465;-83
2022/01/12 06:09:56;;;;;;;18.77;12.23;;;;;;;-5.12;100.00;94568.66;2087099;28;20016;-83
2022/01/12 06:10:57;;;;;;;19.33;11.23;;;;;;;-5.25;100.00;94563.38;2086497;28;20025;-82
2022/01/12 06:11:58;;;;;;;16.77;11.52;;;;;;;-5.13;100.00;94567.13;2088224;28;20095;-83
2022/01/12 06:12:59;;;;;;;18.38;11.77;;;;;;;-5.16;100.00;94565.06;2084626;28;20460;-83
2022/01/12 06:14:00;;;;;;;17.92;12.18;;;;;;;-5.17;100.00;94562.75;2088805;28;20053;-83
2022/01/12 06:15:01;;;;;;;17.20;11.85;;;;;;;-5.29;100.00;94565.75;2085830;28;20104;-83
2022/01/12 06:16:02;;;;;;;17.85;12.25;;;;;;;-5.28;100.00;94569.91;2100676;28;20020;-83